createdAt,value
2022-08-16T00:01:16.018Z,100058.69
2022-08-16T00:03:42.978Z,100060.63
2022-08-16T00:06:10.045Z,100059.75
2022-08-16T00:08:38.174Z,100062.53
2022-08-16T00:11:15.812Z,100069.06
2022-08-16T00:13:53.322Z,100065.56
2022-08-16T00:17:06.637Z,100063.84
2022-08-16T00:19:22.909Z,100057.75
2022-08-16T00:21:53.164Z,100048.91
2022-08-16T00:24:32.166Z,100055.28
2022-08-16T00:27:01.092Z,100060.81
2022-08-16T00:29:29.888Z,100061.88
2022-08-16T00:32:01.446Z,100057.53
2022-08-16T00:34:43.195Z,100058.59
2022-08-16T00:37:21.061Z,100051.66
2022-08-16T00:39:57.138Z,100053.63
2022-08-16T00:42:29.732Z,100062.81
2022-08-16T00:45:10.221Z,100059.44
2022-08-16T00:47:49.292Z,100053.38
2022-08-16T00:50:20.680Z,100058.13
2022-08-16T00:52:51.307Z,100058.31
2022-08-16T00:55:22.304Z,100054.84
2022-08-16T00:58:00.156Z,100066.81
2022-08-16T01:00:33.418Z,100055.22
2022-08-16T01:03:11.732Z,100061.72
2022-08-16T01:05:40.452Z,100074.47
2022-08-16T01:08:35.142Z,100062.97
2022-08-16T01:11:00.086Z,100064.91
2022-08-16T01:13:33.066Z,100060.59
2022-08-16T01:16:10.278Z,100069.75
2022-08-16T01:18:45.669Z,100070.75
2022-08-16T01:21:50.677Z,100071.78
2022-08-16T01:24:52.687Z,100075.88
2022-08-16T01:27:27.704Z,100080.50
2022-08-16T01:30:26.509Z,100087.94
2022-08-16T01:33:02.832Z,100086.22
2022-08-16T01:35:56.654Z,100085.47
2022-08-16T01:38:44.957Z,100080.22
2022-08-16T01:41:30.459Z,100083.91
2022-08-16T01:44:01.014Z,100082.38
2022-08-16T01:46:45.203Z,100090.50
2022-08-16T01:49:18.643Z,100093.28
2022-08-16T01:51:55.064Z,100099.72
2022-08-16T01:54:30.702Z,100100.72
2022-08-16T01:56:59.590Z,100105.34
2022-08-16T01:59:26.548Z,100114.41
2022-08-16T02:02:00.227Z,100113.53
2022-08-16T02:04:48.816Z,100110.09
2022-08-16T02:07:18.419Z,100111.03
2022-08-16T02:09:58.648Z,100105.72
2022-08-16T02:12:39.881Z,100111.25
2022-08-16T02:15:25.372Z,100105.94
2022-08-16T02:17:58.300Z,100105.19
2022-08-16T02:20:28.087Z,100113.38
2022-08-16T02:23:05.591Z,100113.44
2022-08-16T02:25:51.884Z,100104.47
2022-08-16T02:28:23.696Z,100105.59
2022-08-16T02:30:52.290Z,100110.13
2022-08-16T02:33:24.449Z,100120.78
2022-08-16T02:35:55.151Z,100115.38
2022-08-16T02:38:27.400Z,100115.28
2022-08-16T02:40:56.526Z,100114.31
2022-08-16T02:43:29.762Z,100116.94
2022-08-16T02:46:01.266Z,100117.81
2022-08-16T02:48:31.123Z,100123.09
2022-08-16T02:51:06.155Z,100121.28
2022-08-16T02:53:35.485Z,100121.28
2022-08-16T02:56:02.472Z,100124.09
2022-08-16T02:58:29.401Z,100125.81
2022-08-16T03:00:57.711Z,100122.34
2022-08-16T03:03:26.713Z,100109.78
2022-08-16T03:06:39.634Z,100123.31
2022-08-16T03:09:01.892Z,100115.28
2022-08-16T03:11:28.720Z,100114.31
2022-08-16T03:14:02.628Z,100117.13
2022-08-16T03:16:38.470Z,100112.66
2022-08-16T03:19:09.840Z,100111.88
2022-08-16T03:21:38.707Z,100106.47
2022-08-16T03:24:28.793Z,100109.28
2022-08-16T03:26:57.967Z,100112.16
2022-08-16T03:29:30.400Z,100104.25
2022-08-16T03:32:01.968Z,100117.84
2022-08-16T03:34:30.538Z,100107.25
2022-08-16T03:36:58.234Z,100106.47
2022-08-16T03:39:25.159Z,100105.78
2022-08-16T03:41:59.897Z,100101.34
2022-08-16T03:44:44.592Z,100104.34
2022-08-16T03:47:19.042Z,100107.22
2022-08-16T03:49:51.395Z,100109.19
2022-08-16T03:52:20.592Z,100105.78
2022-08-16T03:54:58.181Z,100107.59
2022-08-16T03:57:32.145Z,100105.97
2022-08-16T04:00:35.350Z,100108.75
2022-08-16T04:03:08.843Z,100108.94
2022-08-16T04:05:41.053Z,100110.03
2022-08-16T04:08:23.071Z,100118.19
2022-08-16T04:10:54.249Z,100117.41
2022-08-16T04:14:00.468Z,100117.59
2022-08-16T04:16:26.397Z,100119.56
2022-08-16T04:19:01.383Z,100128.69
2022-08-16T04:21:33.505Z,100121.66
2022-08-16T04:24:02.789Z,100124.34
2022-08-16T04:26:32.187Z,100120.88
2022-08-16T04:29:16.877Z,100123.56
2022-08-16T04:31:56.373Z,100124.63
2022-08-16T04:34:27.647Z,100126.81
2022-08-16T04:36:56.631Z,100127.59
2022-08-16T04:39:24.464Z,100126.53
2022-08-16T04:42:11.258Z,100139.00
2022-08-16T04:44:53.791Z,100132.63
2022-08-16T04:47:24.928Z,100142.47
2022-08-16T04:49:52.785Z,100147.66
2022-08-16T04:52:32.650Z,100147.66
2022-08-16T04:55:06.019Z,100150.09
2022-08-16T04:57:33.131Z,100156.22
2022-08-16T05:00:30.868Z,100156.63
2022-08-16T05:02:55.834Z,100166.66
2022-08-16T05:05:23.555Z,100166.59
2022-08-16T05:07:58.228Z,100168.97
2022-08-16T05:10:29.450Z,100170.22
2022-08-16T05:12:58.264Z,100169.66
2022-08-16T05:15:26.201Z,100165.56
2022-08-16T05:17:58.507Z,100169.41
2022-08-16T05:20:39.066Z,100173.16
2022-08-16T05:23:13.667Z,100170.47
2022-08-16T05:25:48.458Z,100172.13
2022-08-16T05:28:18.545Z,100166.56
2022-08-16T05:30:45.984Z,100163.50
2022-08-16T05:33:18.085Z,100166.72
2022-08-16T05:35:55.218Z,100167.31
2022-08-16T05:38:33.115Z,100163.28
2022-08-16T05:41:07.050Z,100167.59
2022-08-16T05:43:43.320Z,100171.38
2022-08-16T05:46:29.747Z,100178.13
2022-08-16T05:49:05.424Z,100169.75
2022-08-16T05:51:38.160Z,100174.97
2022-08-16T05:54:07.893Z,100181.94
2022-08-16T05:56:37.524Z,100188.16
2022-08-16T05:59:06.102Z,100189.13
2022-08-16T06:01:37.836Z,100197.16
2022-08-16T06:04:13.518Z,100202.34
2022-08-16T06:06:56.751Z,100203.34
2022-08-16T06:09:42.972Z,100204.50
2022-08-16T06:12:27.392Z,100201.88
2022-08-16T06:14:59.203Z,100205.78
2022-08-16T06:17:42.660Z,100196.56
2022-08-16T06:20:18.426Z,100193.97
2022-08-16T06:23:03.034Z,100198.75
2022-08-16T06:25:36.643Z,100193.19
2022-08-16T06:28:17.075Z,100198.34
2022-08-16T06:30:58.595Z,100206.72
2022-08-16T06:33:25.414Z,100201.97
2022-08-16T06:35:54.940Z,100205.78
2022-08-16T06:38:32.303Z,100211.34
2022-08-16T06:41:12.375Z,100212.09
2022-08-16T06:43:41.646Z,100222.25
2022-08-16T06:46:31.975Z,100214.81
2022-08-16T06:49:05.261Z,100226.00
2022-08-16T06:51:48.365Z,100224.38
2022-08-16T06:54:16.744Z,100233.31
2022-08-16T06:56:43.710Z,100235.00
2022-08-16T06:59:10.875Z,100230.94
2022-08-16T07:01:43.135Z,100239.38
2022-08-16T07:04:13.316Z,100239.38
2022-08-16T07:06:59.665Z,100238.13
2022-08-16T07:09:29.760Z,100242.09
2022-08-16T07:12:05.338Z,100240.84
2022-08-16T07:14:33.378Z,100242.75
2022-08-16T07:17:00.833Z,100241.66
2022-08-16T07:20:01.459Z,100243.16
2022-08-16T07:22:37.907Z,100240.53
2022-08-16T07:25:11.769Z,100239.06
2022-08-16T07:27:40.011Z,100256.34
2022-08-16T07:30:38.456Z,100251.53
2022-08-16T07:32:58.658Z,100246.22
2022-08-16T07:35:26.086Z,100248.34
2022-08-16T07:37:53.342Z,100251.50
2022-08-16T07:40:36.998Z,100246.47
2022-08-16T07:43:07.457Z,100254.03
2022-08-16T07:45:34.502Z,100248.88
2022-08-16T07:48:11.443Z,100247.94
2022-08-16T07:50:56.186Z,100248.03
2022-08-16T07:53:31.174Z,100242.97
2022-08-16T07:56:04.395Z,100252.91
2022-08-16T07:58:34.993Z,100256.88
2022-08-16T08:01:10.979Z,100257.00
2022-08-16T08:03:47.613Z,100262.41
2022-08-16T08:06:18.262Z,100267.38
2022-08-16T08:08:51.045Z,100268.25
2022-08-16T08:11:19.868Z,100265.50
2022-08-16T08:13:49.418Z,100271.13
2022-08-16T08:16:19.604Z,100275.38
2022-08-16T08:18:50.556Z,100280.28
2022-08-16T08:21:26.183Z,100269.31
2022-08-16T08:23:54.767Z,100278.31
2022-08-16T08:26:22.114Z,100276.59
2022-08-16T08:28:51.569Z,100276.25
2022-08-16T08:31:19.059Z,100275.44
2022-08-16T08:33:47.567Z,100276.38
2022-08-16T08:36:33.040Z,100270.09
2022-08-16T08:39:00.587Z,100268.63
2022-08-16T08:41:28.872Z,100264.94
2022-08-16T08:43:56.976Z,100271.19
2022-08-16T08:46:25.461Z,100276.00
2022-08-16T08:48:59.166Z,100276.91
2022-08-16T08:51:35.529Z,100274.06
2022-08-16T08:54:06.757Z,100275.22
2022-08-16T08:56:37.169Z,100282.75
2022-08-16T08:59:13.594Z,100276.72
2022-08-16T09:01:57.189Z,100285.09
2022-08-16T09:04:27.026Z,100287.97
2022-08-16T09:06:55.266Z,100279.63
2022-08-16T09:09:23.424Z,100282.22
2022-08-16T09:12:04.206Z,100291.00
2022-08-16T09:14:35.426Z,100290.88
2022-08-16T09:17:11.905Z,100281.38
2022-08-16T09:19:52.640Z,100281.31
2022-08-16T09:22:23.886Z,100283.63
2022-08-16T09:24:52.464Z,100275.72
2022-08-16T09:27:26.466Z,100272.53
2022-08-16T09:30:00.487Z,100281.28
2022-08-16T09:32:31.287Z,100280.13
2022-08-16T09:35:01.359Z,100287.75
2022-08-16T09:37:30.500Z,100283.72
2022-08-16T09:40:31.839Z,100283.28
2022-08-16T09:42:56.124Z,100287.28
2022-08-16T09:45:27.892Z,100286.56
2022-08-16T09:47:58.174Z,100299.34
2022-08-16T09:50:36.945Z,100299.63
2022-08-16T09:53:15.580Z,100287.09
2022-08-16T09:55:49.326Z,100295.56
2022-08-16T09:58:37.859Z,100288.38
2022-08-16T10:01:08.455Z,100287.63
2022-08-16T10:03:37.950Z,100295.84
2022-08-16T10:06:26.197Z,100294.97
2022-08-16T10:09:05.584Z,100289.50
2022-08-16T10:11:56.099Z,100291.25
2022-08-16T10:14:38.631Z,100292.41
2022-08-16T10:17:06.167Z,100290.50
2022-08-16T10:19:33.647Z,100284.91
2022-08-16T10:22:04.955Z,100293.84
2022-08-16T10:24:33.384Z,100301.03
2022-08-16T10:27:26.179Z,100297.56
2022-08-16T10:29:59.544Z,100298.56
2022-08-16T10:32:30.510Z,100296.72
2022-08-16T10:34:58.073Z,100298.44
2022-08-16T10:37:36.061Z,100295.84
2022-08-16T10:40:28.616Z,100301.31
2022-08-16T10:42:56.076Z,100295.84
2022-08-16T10:45:23.053Z,100297.69
2022-08-16T10:48:02.845Z,100298.44
2022-08-16T10:50:32.517Z,100303.75
2022-08-16T10:53:00.507Z,100292.81
2022-08-16T10:55:40.848Z,100299.03
2022-08-16T10:58:16.926Z,100296.78
2022-08-16T11:00:46.309Z,100303.81
2022-08-16T11:06:06.678Z,100299.97
2022-08-16T11:08:40.794Z,100308.16
2022-08-16T11:11:19.111Z,100310.91
2022-08-16T11:14:11.476Z,100301.66
2022-08-16T11:19:22.919Z,100310.06
2022-08-16T11:24:43.277Z,100303.75
2022-08-16T11:27:23.337Z,100306.91
2022-08-16T11:29:55.703Z,100310.38
2022-08-16T11:32:29.820Z,100309.22
2022-08-16T11:35:10.588Z,100315.28
2022-08-16T11:40:32.869Z,100310.25
2022-08-16T11:43:04.128Z,100313.69
2022-08-16T11:45:33.653Z,100314.16
2022-08-16T11:48:03.797Z,100321.22
2022-08-16T11:50:33.404Z,100307.41
2022-08-16T11:53:08.287Z,100309.59
2022-08-16T11:55:38.083Z,100308.28
2022-08-16T11:58:08.328Z,100311.59
2022-08-16T12:00:51.285Z,100311.16
2022-08-16T12:03:29.678Z,100311.75
2022-08-16T12:06:25.448Z,100304.09
2022-08-16T12:09:01.066Z,100311.00
2022-08-16T12:11:31.585Z,100301.53
2022-08-16T12:14:04.209Z,100300.94
2022-08-16T12:16:34.321Z,100302.38
2022-08-16T12:19:04.892Z,100309.03
2022-08-16T12:21:57.814Z,100304.00
2022-08-16T12:24:19.974Z,100309.88
2022-08-16T12:26:46.793Z,100305.25
2022-08-16T12:29:13.724Z,100309.59
2022-08-16T12:32:01.555Z,100303.69
2022-08-16T12:34:29.432Z,100299.50
2022-08-16T12:36:56.505Z,100305.22
2022-08-16T12:39:23.714Z,100298.31
2022-08-16T12:41:57.637Z,100307.81
2022-08-16T12:44:26.539Z,100299.84
2022-08-16T12:47:17.343Z,100302.03
2022-08-16T12:49:44.191Z,100304.16
2022-08-16T12:52:32.633Z,100300.81
2022-08-16T12:54:59.645Z,100297.06
2022-08-16T12:57:36.158Z,100300.22
2022-08-16T13:00:26.403Z,100297.03
2022-08-16T13:03:02.835Z,100302.63
2022-08-16T13:08:03.253Z,100294.16
2022-08-16T13:10:36.855Z,100307.00
2022-08-16T13:13:06.547Z,100303.19
2022-08-16T13:15:55.770Z,100291.31
2022-08-16T13:18:33.504Z,100292.94
2022-08-16T13:21:03.004Z,100291.88
2022-08-16T13:23:30.697Z,100293.03
2022-08-16T13:25:58.064Z,100293.38
2022-08-16T13:28:24.973Z,100293.09
2022-08-16T13:30:55.397Z,100299.66
2022-08-16T13:33:30.553Z,100291.81
2022-08-16T13:36:00.725Z,100299.44
2022-08-16T13:38:32.672Z,100302.41
2022-08-16T13:41:08.956Z,100309.53
2022-08-16T13:43:38.123Z,100287.81
2022-08-16T13:46:06.567Z,100293.53
2022-08-16T13:48:43.072Z,100294.63
2022-08-16T13:51:16.605Z,100292.97
2022-08-16T13:53:45.876Z,100288.88
2022-08-16T13:56:24.932Z,100286.75
2022-08-16T13:58:54.804Z,100289.66
2022-08-16T14:01:22.378Z,100291.09
2022-08-16T14:03:50.209Z,100295.03
2022-08-16T14:06:21.821Z,100293.53
2022-08-16T14:08:50.227Z,100294.06
2022-08-16T14:11:26.468Z,100288.91
2022-08-16T14:13:56.141Z,100294.03
2022-08-16T14:16:33.962Z,100292.25
2022-08-16T14:19:02.181Z,100299.91
2022-08-16T14:21:35.242Z,100295.38
2022-08-16T14:24:22.171Z,100305.78
2022-08-16T14:26:52.646Z,100302.75
2022-08-16T14:29:20.394Z,100297.94
2022-08-16T14:31:53.474Z,100303.72
2022-08-16T14:34:21.549Z,100311.75
2022-08-16T14:36:53.229Z,100306.50
2022-08-16T14:39:22.046Z,100304.00
2022-08-16T14:41:53.775Z,100296.00
2022-08-16T14:44:23.668Z,100302.53
2022-08-16T14:46:52.969Z,100294.38
2022-08-16T14:49:20.158Z,100301.75
2022-08-16T14:51:48.660Z,100289.72
2022-08-16T14:54:15.709Z,100292.00
2022-08-16T14:56:46.888Z,100298.66
2022-08-16T14:59:22.656Z,100295.44
2022-08-16T15:01:57.592Z,100295.50
2022-08-16T15:04:40.551Z,100293.31
2022-08-16T15:07:16.643Z,100287.69
2022-08-16T15:10:01.064Z,100286.81
2022-08-16T15:12:31.077Z,100289.00
2022-08-16T15:15:01.736Z,100288.28
2022-08-16T15:17:39.432Z,100283.13
2022-08-16T15:20:08.666Z,100283.59
2022-08-16T15:22:43.534Z,100284.06
2022-08-16T15:25:29.734Z,100288.44
2022-08-16T15:27:58.499Z,100297.50
2022-08-16T15:30:56.868Z,100293.47
2022-08-16T15:33:19.567Z,100291.97
2022-08-16T15:35:50.506Z,100297.19
2022-08-16T15:38:43.524Z,100293.38
2022-08-16T15:41:04.654Z,100295.25
2022-08-16T15:43:38.872Z,100296.59
2022-08-16T15:46:35.521Z,100296.03
2022-08-16T15:49:15.570Z,100293.06
2022-08-16T15:51:45.465Z,100298.69
2022-08-16T15:54:20.901Z,100304.50
2022-08-16T15:57:03.016Z,100301.03
2022-08-16T15:59:49.208Z,100299.28
2022-08-16T16:02:29.695Z,100292.41
2022-08-16T16:05:01.910Z,100297.34
2022-08-16T16:07:30.841Z,100293.91
2022-08-16T16:10:00.255Z,100293.31
2022-08-16T16:12:52.896Z,100305.47
2022-08-16T16:15:18.759Z,100292.22
2022-08-16T16:17:50.915Z,100302.34
2022-08-16T16:20:21.563Z,100307.56
2022-08-16T16:22:49.281Z,100300.66
2022-08-16T16:25:18.097Z,100307.31
2022-08-16T16:27:45.613Z,100298.34
2022-08-16T16:30:33.513Z,100304.00
2022-08-16T16:33:01.440Z,100299.84
2022-08-16T16:35:32.664Z,100301.16
2022-08-16T16:38:00.155Z,100301.44
2022-08-16T16:40:32.598Z,100302.44
2022-08-16T16:43:00.886Z,100305.50
2022-08-16T16:45:33.345Z,100303.06
2022-08-16T16:48:12.796Z,100307.28
2022-08-16T16:50:45.224Z,100306.84
2022-08-16T16:53:17.688Z,100299.94
2022-08-16T16:55:52.227Z,100312.09
2022-08-16T16:58:43.435Z,100310.66
2022-08-16T17:01:20.973Z,100309.53
2022-08-16T17:04:13.209Z,100304.63
2022-08-16T17:06:53.434Z,100310.41
2022-08-16T17:09:24.689Z,100313.00
2022-08-16T17:11:55.481Z,100315.00
2022-08-16T17:14:32.668Z,100311.88
2022-08-16T17:19:54.271Z,100313.03
2022-08-16T17:22:23.006Z,100316.81
2022-08-16T17:24:52.681Z,100316.38
2022-08-16T17:27:32.161Z,100317.38
2022-08-16T17:30:15.606Z,100323.16
2022-08-16T17:32:54.473Z,100330.63
2022-08-16T17:35:33.705Z,100328.91
2022-08-16T17:38:06.090Z,100330.94
2022-08-16T17:39:26.422Z,100308.72
2022-08-16T17:40:47.213Z,100334.69
2022-08-16T17:43:43.886Z,100333.91
2022-08-16T17:46:41.572Z,100333.22
2022-08-16T17:49:00.850Z,100335.22
2022-08-16T17:51:28.485Z,100340.84
2022-08-16T17:53:55.802Z,100344.72
2022-08-16T17:56:22.684Z,100340.56
2022-08-16T17:58:49.528Z,100343.59
2022-08-16T18:01:16.775Z,100349.63
2022-08-16T18:04:07.283Z,100351.91
2022-08-16T18:06:30.764Z,100358.97
2022-08-16T18:09:02.674Z,100360.53
2022-08-16T18:11:33.738Z,100365.72
2022-08-16T18:14:00.610Z,100363.69
2022-08-16T18:16:27.614Z,100357.03
2022-08-16T18:18:54.414Z,100363.19
2022-08-16T18:21:40.554Z,100364.78
2022-08-16T18:24:09.033Z,100365.59
2022-08-16T18:26:36.342Z,100363.53
2022-08-16T18:29:04.025Z,100367.84
2022-08-16T18:31:31.298Z,100366.63
2022-08-16T18:33:58.185Z,100364.44
2022-08-16T18:36:25.684Z,100368.72
2022-08-16T18:38:53.606Z,100369.41
2022-08-16T18:41:23.023Z,100380.03
2022-08-16T18:44:22.885Z,100375.22
2022-08-16T18:46:44.168Z,100374.16
2022-08-16T18:49:14.927Z,100374.72
2022-08-16T18:51:45.457Z,100377.19
2022-08-16T18:54:16.279Z,100384.91
2022-08-16T18:56:56.930Z,100389.19
2022-08-16T18:59:28.116Z,100388.97
2022-08-16T19:02:00.175Z,100400.41
2022-08-16T19:04:55.532Z,100398.22
2022-08-16T19:07:22.914Z,100410.63
2022-08-16T19:09:57.517Z,100413.91
2022-08-16T19:12:38.400Z,100411.66
2022-08-16T19:15:19.381Z,100412.91
2022-08-16T19:17:46.479Z,100414.16
2022-08-16T19:20:18.187Z,100412.69
2022-08-16T19:23:04.593Z,100419.41
2022-08-16T19:25:49.193Z,100427.09
2022-08-16T19:28:48.274Z,100431.91
2022-08-16T19:31:24.525Z,100426.97
2022-08-16T19:33:56.801Z,100421.91
2022-08-16T19:36:35.462Z,100434.06
2022-08-16T19:39:08.618Z,100434.56
2022-08-16T19:41:38.487Z,100433.06
2022-08-16T19:44:06.857Z,100439.72
2022-08-16T19:46:34.445Z,100450.16
2022-08-16T19:49:01.346Z,100453.13
2022-08-16T19:51:28.231Z,100455.63
2022-08-16T19:53:55.076Z,100454.09
2022-08-16T19:56:24.561Z,100458.81
2022-08-16T19:59:17.574Z,100459.91
2022-08-16T20:01:42.366Z,100451.13
2022-08-16T20:04:12.281Z,100454.09
2022-08-16T20:06:40.560Z,100462.53
2022-08-16T20:09:07.833Z,100460.03
2022-08-16T20:11:35.514Z,100460.28
2022-08-16T20:14:02.796Z,100458.78
2022-08-16T20:16:29.863Z,100462.75
2022-08-16T20:18:56.747Z,100457.53
2022-08-16T20:21:24.205Z,100463.22
2022-08-16T20:23:51.098Z,100461.69
2022-08-16T20:26:18.710Z,100465.53
2022-08-16T20:28:53.564Z,100476.81
2022-08-16T20:31:22.807Z,100467.97
2022-08-16T20:33:50.896Z,100471.06
2022-08-16T20:36:17.716Z,100474.03
2022-08-16T20:38:47.213Z,100469.81
2022-08-16T20:41:16.067Z,100461.00
2022-08-16T20:43:43.433Z,100474.00
2022-08-16T20:46:10.643Z,100478.78
2022-08-16T20:48:37.440Z,100480.88
2022-08-16T20:51:06.678Z,100483.84
2022-08-16T20:53:33.913Z,100480.50
2022-08-16T20:56:00.681Z,100476.41
2022-08-16T20:58:27.522Z,100490.97
2022-08-16T21:00:54.411Z,100490.34
2022-08-16T21:03:21.250Z,100491.41
2022-08-16T21:05:48.029Z,100500.69
2022-08-16T21:08:50.569Z,100502.75
2022-08-16T21:11:05.433Z,100501.25
2022-08-16T21:13:33.865Z,100498.75
2022-08-16T21:16:02.498Z,100503.47
2022-08-16T21:18:29.669Z,100504.69
2022-08-16T21:20:56.597Z,100506.63
2022-08-16T21:23:23.445Z,100505.13
2022-08-16T21:25:59.122Z,100509.94
2022-08-16T21:28:40.138Z,100507.44
2022-08-16T21:31:15.301Z,100510.50
2022-08-16T21:33:43.684Z,100513.44
2022-08-16T21:36:11.769Z,100515.50
2022-08-16T21:38:39.963Z,100514.88
2022-08-16T21:41:08.744Z,100525.13
2022-08-16T21:43:35.809Z,100520.97
2022-08-16T21:46:04.561Z,100530.31
2022-08-16T21:48:34.010Z,100522.38
2022-08-16T21:51:11.341Z,100516.41
2022-08-16T21:53:38.401Z,100515.88
2022-08-16T21:56:06.901Z,100514.34
2022-08-16T21:58:36.650Z,100514.69
2022-08-16T22:01:04.249Z,100505.88
2022-08-16T22:03:32.753Z,100510.78
2022-08-16T22:06:12.964Z,100517.28
2022-08-16T22:08:49.411Z,100512.19
2022-08-16T22:11:23.801Z,100513.38
2022-08-16T22:13:57.840Z,100513.63
2022-08-16T22:16:33.638Z,100514.81
2022-08-16T22:19:01.765Z,100519.69
2022-08-16T22:21:29.896Z,100527.06
2022-08-16T22:23:58.663Z,100530.00
2022-08-16T22:26:33.833Z,100522.06
2022-08-16T22:29:05.107Z,100527.69
2022-08-16T22:31:32.960Z,100531.59
2022-08-16T22:34:01.717Z,100537.25
2022-08-16T22:36:30.482Z,100534.75
2022-08-16T22:38:59.892Z,100527.66
2022-08-16T22:41:32.171Z,100524.22
2022-08-16T22:44:00.810Z,100523.53
2022-08-16T22:46:27.700Z,100528.31
2022-08-16T22:48:54.930Z,100525.72
2022-08-16T22:51:24.813Z,100519.59
2022-08-16T22:53:52.779Z,100524.38
2022-08-16T22:56:20.093Z,100529.16
2022-08-16T22:58:47.501Z,100530.25
2022-08-16T23:01:16.810Z,100532.19
2022-08-16T23:03:44.247Z,100522.41
2022-08-16T23:06:13.674Z,100523.47
2022-08-16T23:08:41.725Z,100531.84
2022-08-16T23:11:12.727Z,100527.59
2022-08-16T23:13:53.012Z,100532.25
2022-08-16T23:16:33.459Z,100523.44
2022-08-16T23:19:04.902Z,100527.31
2022-08-16T23:21:32.783Z,100525.66
2022-08-16T23:23:59.980Z,100531.28
2022-08-16T23:26:46.564Z,100532.38
2022-08-16T23:29:15.958Z,100532.56
2022-08-16T23:31:54.412Z,100534.63
2022-08-16T23:34:22.045Z,100526.69
2022-08-16T23:36:48.861Z,100532.22
2022-08-16T23:39:15.688Z,100530.59
2022-08-16T23:41:43.775Z,100523.50
2022-08-16T23:44:57.718Z,100525.56
2022-08-16T23:46:57.377Z,100520.34
2022-08-16T23:49:59.064Z,100510.66
2022-08-16T23:52:11.361Z,100512.59
2022-08-16T23:54:38.365Z,100512.81
2022-08-16T23:57:05.364Z,100503.03
2022-08-16T23:59:35.898Z,100511.28
